Time;durP1;ratioP1;P1;durP2;ratioP2;P2;SDS_P1;SDS_P2;PMS_P1;PMS_P2;Temp;Humidity;BMP_temperature;BMP_pressure;BME280_temperature;BME280_humidity;BME280_pressure;Samples;Min_cycle;Max_cycle;Signal;HPM_P1;HPM_P2
2021/11/04 00:02:20;;;;;;;3.10;2.22;;;;;;;12.41;61.11;100124.16;4878674;29;20047;-91
2021/11/04 00:04:45;;;;;;;5.85;1.83;;;;;;;12.41;61.17;100124.16;4878628;29;20041;-91
2021/11/04 00:07:12;;;;;;;4.10;2.28;;;;;;;12.28;61.61;100133.03;4878971;29;20060;-91
2021/11/04 00:09:41;;;;;;;2.00;1.65;;;;;;;12.34;61.38;100133.47;4878695;29;20021;-92
2021/11/04 00:12:08;;;;;;;3.85;2.20;;;;;;;12.20;61.05;100129.31;4878725;29;20033;-92
2021/11/04 00:14:33;;;;;;;3.35;2.33;;;;;;;11.99;61.87;100134.50;4878579;29;20547;-92
2021/11/04 00:17:00;;;;;;;3.10;2.13;;;;;;;11.97;62.18;100137.22;4878787;29;20039;-91
2021/11/04 00:19:26;;;;;;;3.42;2.45;;;;;;;11.87;62.41;100144.13;4878049;29;20101;-91
2021/11/04 00:21:51;;;;;;;4.30;2.40;;;;;;;11.68;63.35;100144.72;4880136;29;20468;-90
2021/11/04 00:24:16;;;;;;;2.95;2.22;;;;;;;11.71;62.77;100142.69;4894459;29;20025;-90
2021/11/04 00:26:42;;;;;;;3.35;2.05;;;;;;;11.76;63.28;100142.31;4894277;29;20044;-90
2021/11/04 00:29:07;;;;;;;4.72;2.35;;;;;;;11.76;63.11;100144.94;4890253;29;20029;-91
2021/11/04 00:31:34;;;;;;;6.22;2.33;;;;;;;11.74;63.51;100141.59;4892698;29;20465;-91
2021/11/04 00:33:59;;;;;;;3.47;2.08;;;;;;;11.88;63.08;100141.38;4889424;29;20132;-90
2021/11/04 00:36:25;;;;;;;3.78;2.42;;;;;;;11.92;63.33;100144.63;4892167;29;20052;-91
2021/11/04 00:38:50;;;;;;;3.47;2.33;;;;;;;11.87;63.09;100139.72;4886685;29;20032;-91
2021/11/04 00:41:17;;;;;;;4.95;2.53;;;;;;;11.96;63.10;100143.44;4880345;29;20445;-90
2021/11/04 00:43:43;;;;;;;3.00;2.33;;;;;;;11.99;63.16;100139.75;4878770;29;20412;-90
2021/11/04 00:46:09;;;;;;;3.92;2.33;;;;;;;11.96;63.26;100140.81;4880161;29;20025;-91
2021/11/04 00:48:35;;;;;;;3.42;2.10;;;;;;;11.94;63.09;100136.63;4879804;29;20483;-91
2021/11/04 00:51:00;;;;;;;4.80;2.58;;;;;;;11.99;63.08;100147.66;4879437;29;20033;-91
2021/11/04 00:53:25;;;;;;;4.13;2.22;;;;;;;12.08;63.11;100144.28;4879702;29;20488;-91
2021/11/04 00:55:51;;;;;;;4.65;2.53;;;;;;;12.02;63.01;100147.38;4879485;29;20033;-92
2021/11/04 00:58:17;;;;;;;3.55;2.38;;;;;;;11.99;62.22;100155.53;4879356;29;20025;-91
2021/11/04 01:00:44;;;;;;;3.08;2.78;;;;;;;11.88;63.16;100164.22;4879849;29;20039;-91
2021/11/04 01:03:10;;;;;;;4.25;2.17;;;;;;;11.94;62.61;100157.69;4879145;29;20443;-90
2021/11/04 01:05:36;;;;;;;2.83;2.10;;;;;;;11.91;62.76;100158.75;4879316;29;20033;-91
2021/11/04 01:08:01;;;;;;;4.40;2.35;;;;;;;11.77;62.57;100161.56;4877573;29;20146;-91
2021/11/04 01:10:27;;;;;;;6.38;2.17;;;;;;;11.83;62.99;100164.56;4879031;29;20515;-92
2021/11/04 01:12:52;;;;;;;3.22;1.90;;;;;;;11.80;62.95;100164.81;4878920;29;20025;-92
2021/11/04 01:15:19;;;;;;;4.03;2.00;;;;;;;11.81;62.72;100163.88;4878867;29;20476;-91
2021/11/04 01:17:44;;;;;;;2.95;1.90;;;;;;;11.81;62.50;100163.00;4879253;29;20025;-92
2021/11/04 01:20:10;;;;;;;2.88;1.95;;;;;;;11.78;62.68;100169.34;4879085;29;20473;-91
2021/11/04 01:22:36;;;;;;;6.20;1.95;;;;;;;11.72;62.77;100167.19;4878854;29;20025;-91
2021/11/04 01:25:02;;;;;;;2.55;1.88;;;;;;;11.72;62.26;100175.06;4879168;29;20029;-92
2021/11/04 01:27:27;;;;;;;2.70;2.03;;;;;;;11.64;62.72;100177.47;4878824;29;20037;-91
2021/11/04 01:29:52;;;;;;;4.47;2.22;;;;;;;11.50;63.33;100171.44;4879278;29;20032;-91
2021/11/04 01:32:18;;;;;;;4.13;2.50;;;;;;;11.45;63.27;100178.88;4882493;29;20472;-92
2021/11/04 01:34:43;;;;;;;7.63;2.75;;;;;;;11.40;63.45;100169.66;4882243;29;20119;-92
2021/11/04 01:37:08;;;;;;;3.75;2.67;;;;;;;11.33;63.82;100174.50;4883574;29;20044;-90
2021/11/04 01:39:34;;;;;;;4.70;2.75;;;;;;;11.39;63.76;100183.72;4884718;29;20449;-90
2021/11/04 01:41:59;;;;;;;5.55;3.60;;;;;;;11.26;64.37;100168.88;4887004;29;20037;-91
2021/11/04 01:44:28;;;;;;;6.63;3.38;;;;;;;11.26;64.42;100179.38;4892913;29;20048;-91
2021/11/04 01:46:53;;;;;;;5.45;3.20;;;;;;;11.31;64.38;100177.28;4890056;29;20088;-91
2021/11/04 01:49:19;;;;;;;6.35;3.28;;;;;;;11.28;64.26;100174.03;4889569;29;20061;-91
2021/11/04 01:51:45;;;;;;;5.13;3.10;;;;;;;11.27;64.38;100177.59;4886463;29;20041;-91
2021/11/04 01:54:10;;;;;;;4.45;3.28;;;;;;;11.25;64.43;100171.63;4890180;29;20077;-91
2021/11/04 01:56:38;;;;;;;3.85;2.97;;;;;;;11.30;64.39;100178.22;4887112;29;20483;-91
2021/11/04 01:59:03;;;;;;;6.65;3.65;;;;;;;11.34;63.85;100180.63;4883884;29;20403;-90
2021/11/04 02:01:28;;;;;;;8.88;3.83;;;;;;;11.28;64.11;100177.47;4884787;29;20112;-92
2021/11/04 02:04:04;;;;;;;8.90;3.60;;;;;;;11.30;64.37;100180.00;4884669;29;20896;-90
2021/11/04 02:06:48;;;;;;;5.13;3.20;;;;;;;11.35;63.90;100188.38;4887870;29;20025;-91
2021/11/04 02:09:28;;;;;;;4.68;3.65;;;;;;;11.32;64.03;100184.19;4883792;29;20033;-90
2021/11/04 02:11:59;;;;;;;5.35;3.35;;;;;;;11.40;63.73;100188.88;4890237;29;20108;-90
2021/11/04 02:14:31;;;;;;;8.23;3.63;;;;;;;11.29;63.89;100183.56;4890490;29;20025;-90
2021/11/04 02:16:59;;;;;;;5.22;2.78;;;;;;;11.37;63.65;100186.47;4887591;29;20041;-90
2021/11/04 02:19:47;;;;;;;4.22;2.65;;;;;;;11.28;63.63;100187.16;4885300;29;20057;-91
2021/11/04 02:22:27;;;;;;;5.15;2.72;;;;;;;11.34;63.33;100189.34;4881809;29;20032;-92
2021/11/04 02:25:20;;;;;;;4.18;2.90;;;;;;;11.19;63.58;100182.59;4881988;29;20072;-92
2021/11/04 02:27:55;;;;;;;4.13;2.53;;;;;;;11.13;63.44;100188.28;4882107;29;20521;-92
2021/11/04 02:30:23;;;;;;;5.82;2.33;;;;;;;11.00;63.86;100186.56;4881792;29;20029;-91
2021/11/04 02:32:50;;;;;;;4.85;3.03;;;;;;;11.14;63.44;100187.31;4881929;29;20047;-91
2021/11/04 02:35:16;;;;;;;7.18;2.88;;;;;;;11.14;63.23;100189.97;4881831;29;20373;-92
2021/11/04 02:37:47;;;;;;;4.65;2.70;;;;;;;10.99;63.54;100192.78;4881497;29;20032;-92
2021/11/04 02:40:14;;;;;;;4.30;2.40;;;;;;;11.15;63.11;100192.47;4881525;29;20025;-91
2021/11/04 02:42:41;;;;;;;3.30;2.38;;;;;;;11.13;62.98;100193.56;4880373;29;20492;-91
2021/11/04 02:45:08;;;;;;;5.65;2.35;;;;;;;11.17;63.39;100195.00;4881055;29;20058;-91
2021/11/04 02:47:38;;;;;;;3.55;2.45;;;;;;;11.09;63.07;100191.13;4881326;29;20060;-92
2021/11/04 02:50:05;;;;;;;4.05;2.30;;;;;;;10.96;63.04;100195.63;4881150;29;20052;-92
2021/11/04 02:52:30;;;;;;;2.58;1.90;;;;;;;10.99;62.93;100195.41;4880977;29;20128;-92
2021/11/04 02:55:03;;;;;;;4.68;2.10;;;;;;;10.99;62.70;100192.78;4880403;29;20563;-92
2021/11/04 02:57:29;;;;;;;5.53;2.28;;;;;;;10.88;62.99;100205.84;4880803;29;20048;-91
2021/11/04 02:59:55;;;;;;;5.00;2.30;;;;;;;10.98;62.85;100196.34;4880730;29;20025;-93
2021/11/04 03:02:20;;;;;;;2.95;1.85;;;;;;;11.02;62.67;100199.56;4880639;29;20117;-92
2021/11/04 03:04:46;;;;;;;3.30;1.77;;;;;;;10.92;63.09;100207.31;4880809;29;20058;-92
2021/11/04 03:07:11;;;;;;;2.30;1.80;;;;;;;10.97;63.33;100220.09;4880719;29;20029;-92
2021/11/04 03:09:37;;;;;;;3.60;1.95;;;;;;;10.98;62.37;100217.38;4881225;29;20365;-92
2021/11/04 03:12:03;;;;;;;5.22;2.17;;;;;;;10.96;62.51;100218.41;4858039;29;20049;-92
2021/11/04 03:14:29;;;;;;;3.10;1.80;;;;;;;11.03;62.25;100220.50;4876678;29;20052;-92
2021/11/04 03:16:57;;;;;;;4.85;2.00;;;;;;;11.00;62.30;100217.25;4875786;29;20429;-93
2021/11/04 03:19:24;;;;;;;3.50;2.17;;;;;;;11.06;62.26;100211.56;4861899;29;20112;-92
2021/11/04 03:21:52;;;;;;;3.42;2.30;;;;;;;11.07;62.28;100214.06;4861533;29;20034;-92
2021/11/04 03:24:19;;;;;;;2.65;1.85;;;;;;;11.04;61.90;100222.19;4861841;29;20373;-92
2021/11/04 03:27:06;;;;;;;2.70;1.50;;;;;;;11.12;62.11;100221.63;4858287;29;20105;-92
2021/11/04 03:29:36;;;;;;;2.97;1.50;;;;;;;11.14;61.59;100221.50;4845146;29;20026;-92
2021/11/04 03:32:05;;;;;;;3.55;1.83;;;;;;;10.94;62.09;100222.94;4859557;29;20402;-91
2021/11/04 03:34:32;;;;;;;3.10;1.45;;;;;;;11.01;61.79;100217.13;4870301;29;20057;-92
2021/11/04 03:36:59;;;;;;;2.35;1.30;;;;;;;10.93;61.90;100223.91;4861189;29;20029;-92
2021/11/04 03:39:25;;;;;;;1.70;1.42;;;;;;;10.84;62.30;100228.88;4861922;29;20036;-91
2021/11/04 03:41:53;;;;;;;3.10;1.10;;;;;;;10.90;61.63;100227.59;4861101;29;20403;-92
2021/11/04 03:44:19;;;;;;;2.35;1.25;;;;;;;10.95;61.63;100229.88;4861167;29;20032;-91
2021/11/04 03:46:46;;;;;;;1.85;1.30;;;;;;;10.98;61.34;100227.88;4860608;29;20492;-92
2021/11/04 03:49:15;;;;;;;2.83;1.20;;;;;;;10.89;61.54;100234.63;4862938;29;20017;-91
2021/11/04 03:51:42;;;;;;;4.60;1.25;;;;;;;10.77;61.96;100234.69;4878445;29;20033;-91
2021/11/04 03:54:08;;;;;;;2.65;1.27;;;;;;;10.89;61.31;100237.25;4878358;29;20089;-92
2021/11/04 03:56:34;;;;;;;2.30;1.05;;;;;;;10.82;61.12;100232.53;4863125;29;20037;-91
2021/11/04 03:58:59;;;;;;;4.03;1.10;;;;;;;10.88;61.37;100243.47;4860384;29;20025;-92
2021/11/04 04:01:25;;;;;;;2.55;1.08;;;;;;;10.66;61.75;100240.69;4858391;29;20116;-92
2021/11/04 04:03:51;;;;;;;2.47;1.17;;;;;;;10.74;61.38;100245.38;4850756;29;20083;-92
2021/11/04 04:06:20;;;;;;;3.05;1.40;;;;;;;10.66;61.44;100254.66;4841938;29;20113;-92
2021/11/04 04:08:49;;;;;;;1.98;1.17;;;;;;;10.61;61.88;100255.94;4842281;29;20030;-91
2021/11/04 04:11:15;;;;;;;1.58;1.27;;;;;;;10.57;61.83;100257.94;4842521;29;20058;-92
2021/11/04 04:13:40;;;;;;;2.80;1.15;;;;;;;10.49;62.06;100258.47;4842134;29;20034;-91
2021/11/04 04:16:05;;;;;;;2.10;1.40;;;;;;;10.45;62.27;100261.44;4845768;29;20072;-91
2021/11/04 04:18:31;;;;;;;5.72;1.55;;;;;;;10.45;62.46;100262.25;4842114;29;20086;-91
2021/11/04 04:20:56;;;;;;;9.02;1.25;;;;;;;10.40;62.50;100263.53;4851996;29;20089;-91
2021/11/04 04:23:21;;;;;;;1.77;1.13;;;;;;;10.39;62.32;100264.47;4858767;29;20041;-91
2021/11/04 04:25:47;;;;;;;1.95;1.27;;;;;;;10.26;62.49;100267.91;4858539;29;20373;-91
2021/11/04 04:28:13;;;;;;;2.45;1.25;;;;;;;10.30;62.72;100268.56;4876374;29;20033;-90
2021/11/04 04:30:39;;;;;;;3.13;1.20;;;;;;;10.29;62.72;100267.69;4874569;29;20029;-90
2021/11/04 04:33:04;;;;;;;4.95;1.17;;;;;;;10.26;62.97;100272.31;4873144;29;20063;-90
2021/11/04 04:35:29;;;;;;;2.10;1.35;;;;;;;10.27;62.67;100271.38;4873062;29;20037;-91
2021/11/04 04:37:55;;;;;;;6.53;1.20;;;;;;;10.24;62.55;100268.97;4867300;29;20044;-91
2021/11/04 04:40:20;;;;;;;2.58;1.58;;;;;;;10.18;62.65;100275.47;4857929;29;20063;-91
2021/11/04 04:42:46;;;;;;;2.17;1.40;;;;;;;10.12;62.77;100274.09;4842526;29;20037;-92
2021/11/04 04:45:15;;;;;;;4.65;1.60;;;;;;;10.09;62.49;100283.94;4843757;29;20282;-90
2021/11/04 04:47:41;;;;;;;2.85;1.10;;;;;;;10.15;62.76;100283.56;4843909;29;20470;-91
2021/11/04 04:50:07;;;;;;;2.38;1.23;;;;;;;10.19;62.31;100290.28;4844418;29;20041;-91
2021/11/04 04:52:32;;;;;;;4.30;1.40;;;;;;;10.07;62.95;100283.22;4861624;29;20034;-91
2021/11/04 04:54:57;;;;;;;5.68;1.40;;;;;;;10.05;62.49;100285.09;4854350;29;20030;-91
2021/11/04 04:57:23;;;;;;;1.92;1.30;;;;;;;10.05;62.62;100295.59;4858997;29;20120;-90
2021/11/04 04:59:57;;;;;;;3.67;1.50;;;;;;;10.02;62.72;100296.66;4861362;29;20362;-91
2021/11/04 05:02:23;;;;;;;3.15;1.58;;;;;;;10.02;62.91;100303.69;4861535;29;20134;-91
2021/11/04 05:04:49;;;;;;;3.00;1.20;;;;;;;10.01;62.96;100308.09;4861807;29;20037;-92
2021/11/04 05:07:15;;;;;;;4.53;1.25;;;;;;;10.02;62.71;100312.38;4864980;29;20029;-90
2021/11/04 05:09:41;;;;;;;3.08;1.33;;;;;;;10.01;62.78;100315.09;4864896;29;20500;-91
2021/11/04 05:12:07;;;;;;;3.50;1.27;;;;;;;10.04;62.49;100309.66;4849098;29;20042;-92
2021/11/04 05:14:32;;;;;;;3.40;1.55;;;;;;;9.99;62.71;100322.25;4846446;29;20441;-91
2021/11/04 05:16:57;;;;;;;1.88;0.73;;;;;;;9.98;63.13;100320.56;4846175;29;20037;-91
2021/11/04 05:19:23;;;;;;;3.47;0.82;;;;;;;9.74;63.31;100329.13;4846158;29;20027;-92
2021/11/04 05:21:48;;;;;;;1.95;0.82;;;;;;;9.63;63.56;100331.59;4846104;29;20030;-92
2021/11/04 05:24:14;;;;;;;1.40;1.00;;;;;;;9.64;63.43;100338.53;4846567;29;20022;-92
2021/11/04 05:26:39;;;;;;;1.00;0.80;;;;;;;9.61;63.22;100347.41;4862554;29;20030;-92
2021/11/04 05:29:05;;;;;;;2.33;0.60;;;;;;;9.73;63.21;100348.41;4864485;29;20064;-92
2021/11/04 05:31:30;;;;;;;2.33;0.73;;;;;;;9.67;63.09;100343.56;4863001;29;20033;-91
2021/11/04 05:33:56;;;;;;;2.90;0.98;;;;;;;9.69;62.86;100346.94;4864200;29;20025;-91
2021/11/04 05:36:22;;;;;;;2.35;0.70;;;;;;;9.52;62.95;100354.09;4863996;29;20042;-92
2021/11/04 05:38:48;;;;;;;1.30;0.73;;;;;;;9.53;63.00;100353.16;4864043;29;20029;-92
2021/11/04 05:41:14;;;;;;;1.35;0.70;;;;;;;9.54;63.13;100359.25;4848833;29;20086;-92
2021/11/04 05:43:39;;;;;;;1.10;0.82;;;;;;;9.53;62.96;100352.31;4845630;29;20509;-91
2021/11/04 05:46:05;;;;;;;1.30;0.80;;;;;;;9.40;63.62;100344.41;4845414;29;20030;-92
2021/11/04 05:48:30;;;;;;;1.17;0.80;;;;;;;9.47;63.63;100350.09;4845044;29;20121;-91
2021/11/04 05:50:57;;;;;;;1.90;0.73;;;;;;;9.42;63.06;100350.41;4844747;29;20477;-91
2021/11/04 05:53:23;;;;;;;1.42;0.82;;;;;;;9.42;63.14;100353.03;4844726;29;20026;-92
2021/11/04 05:55:49;;;;;;;1.73;0.80;;;;;;;9.57;62.79;100360.84;4844692;29;20041;-91
2021/11/04 05:58:15;;;;;;;1.77;0.90;;;;;;;9.30;63.84;100357.25;4844862;29;20030;-90
2021/11/04 06:00:40;;;;;;;2.00;0.73;;;;;;;9.36;63.38;100361.28;4844660;29;20085;-91
2021/11/04 06:03:06;;;;;;;1.27;0.73;;;;;;;9.44;62.66;100364.25;4844257;29;20041;-91
2021/11/04 06:05:32;;;;;;;1.08;0.60;;;;;;;9.40;62.71;100360.16;4844350;29;20041;-92
2021/11/04 06:07:57;;;;;;;1.67;0.90;;;;;;;9.48;63.26;100365.72;4844046;29;20034;-92
2021/11/04 06:10:23;;;;;;;2.55;1.27;;;;;;;9.43;62.83;100365.19;4862247;29;20073;-91
2021/11/04 06:12:48;;;;;;;3.55;1.00;;;;;;;9.44;62.65;100374.72;4862558;29;20040;-92
2021/11/04 06:15:13;;;;;;;3.10;0.80;;;;;;;9.38;63.03;100375.13;4862610;29;20087;-93
2021/11/04 06:17:39;;;;;;;1.83;0.80;;;;;;;9.45;63.23;100375.56;4861643;29;20037;-91
2021/11/04 06:20:05;;;;;;;2.97;1.00;;;;;;;9.51;62.39;100381.25;4862269;29;20057;-92
2021/11/04 06:22:30;;;;;;;3.85;0.75;;;;;;;9.41;62.80;100379.31;4860296;29;20037;-91
2021/11/04 06:24:55;;;;;;;2.65;0.88;;;;;;;9.39;63.19;100384.66;4844008;29;20034;-92
2021/11/04 06:27:21;;;;;;;1.58;0.77;;;;;;;9.37;63.43;100391.78;4844048;29;20026;-91
2021/11/04 06:29:46;;;;;;;1.80;0.80;;;;;;;9.29;63.05;100389.63;4850163;29;20041;-92
2021/11/04 06:32:12;;;;;;;6.18;1.17;;;;;;;9.35;62.86;100391.03;4862324;29;20548;-92
2021/11/04 06:34:37;;;;;;;2.65;0.70;;;;;;;9.46;62.39;100388.59;4862129;29;20121;-91
2021/11/04 06:37:03;;;;;;;1.17;0.80;;;;;;;9.35;62.86;100398.91;4862060;29;20473;-92
2021/11/04 06:39:28;;;;;;;2.10;0.90;;;;;;;9.22;63.03;100404.06;4861336;29;20041;-92
2021/11/04 06:41:54;;;;;;;0.82;0.55;;;;;;;9.32;62.93;100401.69;4862086;29;20511;-91
2021/11/04 06:44:20;;;;;;;3.05;0.75;;;;;;;9.32;63.26;100397.31;4862362;29;20033;-93
2021/11/04 06:46:49;;;;;;;1.40;0.70;;;;;;;9.34;62.57;100399.84;4861684;29;20034;-91
2021/11/04 06:49:17;;;;;;;0.93;0.70;;;;;;;9.20;63.08;100402.47;4862161;29;20028;-90
2021/11/04 06:51:47;;;;;;;0.70;0.60;;;;;;;9.13;63.16;100407.25;4860735;29;20386;-92
2021/11/04 06:54:15;;;;;;;1.05;0.70;;;;;;;9.30;62.71;100398.31;4855669;29;20030;-91
2021/11/04 06:56:43;;;;;;;2.30;0.75;;;;;;;9.30;62.81;100396.56;4843514;29;20026;-94
2021/11/04 06:59:20;;;;;;;0.73;0.60;;;;;;;9.20;62.95;100403.31;4843889;29;20030;-93
2021/11/04 07:01:54;;;;;;;3.35;0.85;;;;;;;9.10;63.68;100413.53;4846791;29;20030;-90
2021/11/04 07:04:41;;;;;;;0.50;0.50;;;;;;;9.30;62.52;100408.81;4843378;29;20113;-90
2021/11/04 07:07:08;;;;;;;3.40;0.80;;;;;;;9.26;62.66;100415.19;4843313;29;20037;-90
2021/11/04 07:09:36;;;;;;;1.52;0.73;;;;;;;9.36;62.87;100411.06;4857007;29;20115;-91
2021/11/04 07:12:03;;;;;;;2.17;0.77;;;;;;;9.41;62.54;100422.09;4861451;29;20576;-91
2021/11/04 07:14:31;;;;;;;1.00;0.57;;;;;;;9.41;62.16;100416.00;4860837;29;20034;-91
2021/11/04 07:16:59;;;;;;;5.03;0.90;;;;;;;9.26;62.84;100433.53;4861317;29;20539;-91
2021/11/04 07:19:25;;;;;;;2.58;0.93;;;;;;;9.31;62.95;100432.31;4859016;29;20202;-94
2021/11/04 07:22:17;;;;;;;1.40;0.75;;;;;;;9.45;62.27;100449.78;4862928;29;20038;-95
2021/11/04 07:25:17;;;;;;;3.13;0.67;;;;;;;9.51;62.06;100443.31;4862051;29;20029;-95
2021/11/04 07:28:03;;;;;;;1.85;1.00;;;;;;;9.56;62.21;100450.88;4830469;29;20655;-96
2021/11/04 07:30:30;;;;;;;2.83;1.00;;;;;;;9.54;62.39;100440.53;4861288;29;20022;-95
2021/11/04 07:32:58;;;;;;;1.77;0.88;;;;;;;9.39;62.77;100444.94;4861238;29;20400;-92
2021/11/04 07:35:27;;;;;;;3.70;0.88;;;;;;;9.48;62.95;100454.84;4858604;29;20029;-96
2021/11/04 07:37:52;;;;;;;2.25;0.80;;;;;;;9.41;62.96;100458.78;4863152;29;20504;-93
2021/11/04 07:40:21;;;;;;;2.45;0.98;;;;;;;9.50;62.35;100460.00;4869694;29;20060;-94
2021/11/04 07:42:47;;;;;;;2.22;1.10;;;;;;;9.57;62.54;100473.56;4862505;29;20061;-90
2021/11/04 07:45:13;;;;;;;3.08;1.20;;;;;;;9.58;62.17;100476.09;4867708;29;20044;-90
2021/11/04 07:47:40;;;;;;;1.08;0.95;;;;;;;9.69;62.03;100478.84;4877471;29;20388;-91
2021/11/04 07:50:07;;;;;;;2.90;1.23;;;;;;;9.76;61.84;100479.31;4871442;29;20033;-90
2021/11/04 07:52:33;;;;;;;2.45;1.13;;;;;;;9.72;62.14;100480.47;4862450;29;20026;-89
2021/11/04 07:55:00;;;;;;;2.53;1.20;;;;;;;10.12;62.17;100481.34;4878018;29;20029;-91
2021/11/04 07:57:27;;;;;;;3.15;1.48;;;;;;;10.23;61.02;100485.91;4866413;29;20118;-90
2021/11/04 07:59:52;;;;;;;4.93;1.38;;;;;;;10.60;59.43;100486.13;4872652;29;20093;-90
2021/11/04 08:02:18;;;;;;;2.03;0.88;;;;;;;10.67;58.97;100492.66;4865626;29;20111;-90
2021/11/04 08:04:43;;;;;;;2.70;1.38;;;;;;;10.81;58.70;100483.84;4879144;29;20029;-95
2021/11/04 08:07:08;;;;;;;1.55;1.13;;;;;;;10.82;58.68;100498.69;4874873;29;20098;-92
2021/11/04 08:09:34;;;;;;;1.73;1.02;;;;;;;10.44;59.25;100509.09;4859795;29;20116;-91
2021/11/04 08:11:59;;;;;;;2.08;1.20;;;;;;;10.36;59.67;100506.13;4848126;29;20036;-90
2021/11/04 08:14:25;;;;;;;4.78;1.65;;;;;;;10.46;59.59;100515.91;4859443;29;20101;-91
2021/11/04 08:16:50;;;;;;;4.32;0.93;;;;;;;10.52;59.66;100514.69;4860297;29;20120;-91
2021/11/04 08:19:17;;;;;;;5.07;1.13;;;;;;;10.44;59.84;100511.72;4860462;29;20089;-91
2021/11/04 08:21:42;;;;;;;6.53;1.63;;;;;;;10.51;59.99;100518.25;4866947;29;20030;-90
2021/11/04 08:24:08;;;;;;;2.17;1.10;;;;;;;10.69;59.32;100527.53;4859322;29;20120;-90
2021/11/04 08:26:33;;;;;;;2.47;1.25;;;;;;;10.76;58.85;100519.25;4866339;29;20040;-90
2021/11/04 08:29:01;;;;;;;3.33;1.10;;;;;;;10.86;59.18;100522.94;4868879;29;20036;-90
2021/11/04 08:31:28;;;;;;;4.43;1.00;;;;;;;10.87;58.67;100519.38;4879342;29;20041;-93
2021/11/04 08:33:53;;;;;;;1.30;1.00;;;;;;;11.13;58.83;100529.91;4895719;29;20037;-93
2021/11/04 08:36:19;;;;;;;5.75;0.80;;;;;;;10.95;59.15;100530.22;4895406;29;20047;-92
2021/11/04 08:38:44;;;;;;;1.42;0.93;;;;;;;11.00;58.70;100530.75;4874599;29;20022;-92
2021/11/04 08:41:09;;;;;;;2.05;1.20;;;;;;;10.99;59.23;100534.31;4864843;29;20026;-92
2021/11/04 08:43:35;;;;;;;1.90;1.05;;;;;;;10.95;59.11;100542.50;4858291;29;20025;-93
2021/11/04 08:46:00;;;;;;;2.42;1.75;;;;;;;10.99;58.51;100539.56;4886092;29;20033;-93
2021/11/04 08:48:26;;;;;;;3.53;0.90;;;;;;;11.01;58.46;100542.91;4890465;29;20366;-93
2021/11/04 08:50:51;;;;;;;3.50;1.05;;;;;;;10.91;58.69;100547.13;4880581;29;20036;-93
2021/11/04 08:53:18;;;;;;;2.83;1.13;;;;;;;10.98;58.86;100542.28;4862733;29;20467;-94
2021/11/04 08:55:43;;;;;;;2.17;0.73;;;;;;;10.97;58.97;100545.88;4861327;29;20113;-94
2021/11/04 08:58:09;;;;;;;2.15;0.63;;;;;;;11.10;58.91;100550.19;4861231;29;20120;-95
2021/11/04 09:00:34;;;;;;;1.13;0.50;;;;;;;11.79;58.14;100555.09;4861184;29;20030;-93
2021/11/04 09:03:00;;;;;;;2.70;0.68;;;;;;;12.99;54.62;100562.16;4860752;29;20030;-94
2021/11/04 09:05:25;;;;;;;4.15;0.68;;;;;;;14.36;51.39;100563.88;4860036;29;20065;-94
2021/11/04 09:07:51;;;;;;;1.30;0.60;;;;;;;15.36;49.13;100553.72;4861805;29;20433;-94
2021/11/04 09:10:20;;;;;;;1.50;0.43;;;;;;;16.08;47.26;100557.25;4861527;29;20060;-94
2021/11/04 09:12:46;;;;;;;3.83;0.52;;;;;;;17.04;45.35;100558.28;4862271;29;20112;-95
2021/11/04 09:15:12;;;;;;;1.17;0.40;;;;;;;17.74;43.64;100560.56;4869374;29;20535;-93
2021/11/04 09:17:37;;;;;;;1.60;0.40;;;;;;;18.26;42.37;100564.50;4879934;29;20169;-93
2021/11/04 09:20:05;;;;;;;2.22;0.30;;;;;;;17.94;42.54;100571.13;4875017;29;20388;-95
2021/11/04 09:22:33;;;;;;;3.47;0.40;;;;;;;17.80;42.80;100575.91;4859564;29;20065;-94
2021/11/04 09:24:58;;;;;;;1.02;0.43;;;;;;;17.86;42.52;100579.00;4876960;29;20025;-95
2021/11/04 09:27:23;;;;;;;0.90;0.43;;;;;;;18.39;41.15;100575.59;4878732;29;20400;-94
2021/11/04 09:29:50;;;;;;;0.95;0.30;;;;;;;18.79;41.23;100576.94;4879103;29;20036;-96
2021/11/04 09:32:16;;;;;;;4.25;0.55;;;;;;;19.00;39.79;100579.31;4889976;29;20029;-95
2021/11/04 09:34:41;;;;;;;1.00;0.60;;;;;;;19.71;39.22;100577.44;4890845;29;20060;-95
2021/11/04 09:37:07;;;;;;;1.50;0.40;;;;;;;20.20;38.89;100582.94;4887873;29;20025;-95
2021/11/04 09:39:34;;;;;;;1.38;0.30;;;;;;;20.77;36.86;100591.09;4869566;29;20100;-94
2021/11/04 09:42:01;;;;;;;2.70;0.40;;;;;;;21.00;37.17;100580.53;4866645;29;20038;-96
2021/11/04 09:44:27;;;;;;;2.13;0.40;;;;;;;21.15;36.23;100582.56;4854074;29;20041;-96
2021/11/04 09:46:53;;;;;;;3.53;0.38;;;;;;;20.98;36.42;100581.72;4853866;29;20029;-95
2021/11/04 09:49:18;;;;;;;1.17;0.40;;;;;;;21.09;35.80;100580.53;4882897;29;20112;-96
2021/11/04 09:51:44;;;;;;;1.73;0.47;;;;;;;21.33;36.31;100579.69;4862962;29;20078;-96
2021/11/04 09:54:09;;;;;;;12.18;1.20;;;;;;;22.22;35.65;100585.72;4867559;29;20365;-95
2021/11/04 09:56:35;;;;;;;3.13;0.55;;;;;;;21.86;35.75;100582.69;4866654;29;20057;-96
2021/11/04 09:59:01;;;;;;;3.22;0.60;;;;;;;21.53;35.30;100581.00;4866800;29;20032;-95
2021/11/04 10:01:31;;;;;;;1.80;0.60;;;;;;;21.77;35.17;100582.72;4889090;29;20025;-96
2021/11/04 10:03:59;;;;;;;1.40;0.40;;;;;;;20.68;35.76;100576.06;4863278;29;20061;-96
2021/11/04 10:06:29;;;;;;;1.92;0.50;;;;;;;21.12;35.64;100578.38;4884418;29;20037;-95
2021/11/04 10:08:58;;;;;;;1.52;0.52;;;;;;;21.39;35.77;100582.50;4871579;29;20496;-96
2021/11/04 10:11:30;;;;;;;2.33;0.38;;;;;;;21.71;35.31;100583.44;5223468;23;20051;-96
2021/11/04 10:14:14;;;;;;;1.08;0.30;;;;;;;21.56;35.17;100595.84;4928450;29;20032;-96
2021/11/04 10:16:41;;;;;;;1.27;0.30;;;;;;;22.02;35.27;100587.13;4930952;29;20040;-96
2021/11/04 10:19:09;;;;;;;1.48;0.50;;;;;;;21.56;35.00;100598.50;4923186;29;20024;-96
2021/11/04 10:21:37;;;;;;;1.38;0.50;;;;;;;21.70;34.98;100607.66;4907117;29;20521;-96
2021/11/04 10:24:05;;;;;;;1.80;0.57;;;;;;;21.65;35.20;100610.03;4909822;29;20035;-96
2021/11/04 10:26:36;;;;;;;3.47;0.30;;;;;;;22.33;34.50;100614.78;4918573;29;20071;-96
2021/11/04 10:29:07;;;;;;;1.45;0.30;;;;;;;22.05;33.93;100619.72;4911031;29;20063;-96
2021/11/04 10:31:35;;;;;;;0.80;0.30;;;;;;;21.69;35.06;100622.84;4925988;29;20034;-95
2021/11/04 10:34:01;;;;;;;0.43;0.20;;;;;;;20.70;35.72;100631.94;4919576;29;20063;-96
2021/11/04 10:36:27;;;;;;;0.98;0.30;;;;;;;20.45;36.36;100618.50;4917203;29;20036;-93
2021/11/04 10:38:58;;;;;;;0.40;0.20;;;;;;;20.84;36.37;100625.09;4918680;29;20039;-94
2021/11/04 10:41:46;;;;;;;0.68;0.20;;;;;;;21.07;35.76;100626.09;4918180;29;20057;-96
2021/11/04 10:44:16;;;;;;;0.73;0.35;;;;;;;21.12;35.37;100629.09;4918882;29;20410;-96
2021/11/04 10:46:49;;;;;;;1.65;0.30;;;;;;;21.69;34.89;100625.53;4917828;29;20131;-96
2021/11/04 10:49:19;;;;;;;1.92;0.43;;;;;;;22.44;34.64;100634.94;4919375;29;20071;-96
2021/11/04 10:52:00;;;;;;;0.90;0.35;;;;;;;22.93;33.94;100625.72;4917512;29;20028;-96
2021/11/04 10:54:26;;;;;;;1.60;0.93;;;;;;;22.59;33.60;100624.31;4924903;29;20122;-96
2021/11/04 10:56:53;;;;;;;2.38;0.30;;;;;;;22.80;33.24;100628.16;4919909;29;20324;-96
2021/11/04 10:59:20;;;;;;;1.42;0.35;;;;;;;22.76;33.31;100631.19;4917766;29;20024;-96
2021/11/04 11:01:51;;;;;;;1.45;0.47;;;;;;;22.46;33.15;100624.88;4917631;29;20024;-95
2021/11/04 11:04:31;;;;;;;1.70;0.32;;;;;;;22.78;33.26;100620.31;4916261;29;20024;-95
2021/11/04 11:06:57;;;;;;;1.02;0.47;;;;;;;23.40;33.03;100626.50;4917303;29;20087;-96
2021/11/04 11:09:25;;;;;;;2.97;0.60;;;;;;;23.38;32.98;100623.16;4936381;29;20031;-96
2021/11/04 11:11:53;;;;;;;2.15;0.47;;;;;;;23.04;32.75;100644.06;4930703;29;20040;-91
2021/11/04 11:14:21;;;;;;;0.82;0.20;;;;;;;22.43;32.89;100635.09;4917410;29;20032;-90
2021/11/04 11:16:48;;;;;;;1.83;0.55;;;;;;;22.45;33.26;100639.25;4918766;29;20505;-91
2021/11/04 11:19:23;;;;;;;1.05;0.35;;;;;;;23.24;33.03;100639.03;4917762;29;20033;-92
2021/11/04 11:21:53;;;;;;;1.50;0.55;;;;;;;23.44;32.44;100638.50;4918257;29;20056;-90
2021/11/04 11:24:28;;;;;;;1.42;0.60;;;;;;;23.34;32.82;100634.25;4935947;29;20083;-91
2021/11/04 11:26:55;;;;;;;1.52;0.30;;;;;;;22.52;33.67;100650.09;4917038;29;20020;-92
2021/11/04 11:29:20;;;;;;;2.25;0.30;;;;;;;23.04;33.36;100643.22;4916808;29;20036;-90